»·PEaware :: N43XS KPDX-CYYJ

N43XS :: KPDX-CYYJ

FLIGHT INFORMATION

Flight Status: Arrived
Operator: Privately registered:
United States
More flights under this callsign
Pilot: Maurice C. (12314)
Aircraft: BEECH AIRCRAFT A90-E90 KING AIR
(BE9L)
More flights by this aircraft type
Origin: KPDX Portland Intl
United States
Destination: CYYJ Victoria Intl
Canada
More flights between these airports :: More routes between these airports
Route: +DRCT
File this flight plan on PilotEdge
Remarks:
Altitude:
(Current/Filed)
12,500ft
Speed:
(Current/Filed)
200kts
Departed: 04-Sep-17 11:07 AM
Arrived: 04-Sep-17 12:08 PM
Distance/Time
Traveled:
186nm/1:01
Distance/Time
To Go:
Arrived

Flight Plot

Page will automatically refresh every two minutes.

Flight plan parsing failed; only flown route is shown


Map Options




Map Legend


Flown Route
Filed Route
Departure Airport
Arrival Airport
Navaid (VOR, NDB)
Fix

Horizontal Profiles

Position Reports

Time Latitude Longitude Heading Altitude Ground
Speed
04-Sep-17 10:45 45.585071 -122.577999 249 20ft 0kts
04-Sep-17 10:46 45.585071 -122.577999 249 20ft 0kts
04-Sep-17 10:47 45.585071 -122.577999 249 20ft 0kts
04-Sep-17 10:48 45.585071 -122.577999 249 20ft 0kts
04-Sep-17 10:49 45.585071 -122.577999 249 20ft 0kts
04-Sep-17 10:50 45.585071 -122.577999 249 20ft 0kts
04-Sep-17 10:57 45.585058 -122.578009 249 20ft 0kts
04-Sep-17 10:58 45.585058 -122.578009 249 20ft 0kts
04-Sep-17 10:59 45.585058 -122.578009 249 20ft 0kts
04-Sep-17 11:00 45.585058 -122.578009 249 20ft 0kts
04-Sep-17 11:01 45.585058 -122.578009 249 20ft 0kts
04-Sep-17 11:02 45.585058 -122.578010 249 20ft 0kts
04-Sep-17 11:03 45.585058 -122.578010 249 20ft 0kts
04-Sep-17 11:04 45.585058 -122.578010 249 20ft 0kts
04-Sep-17 11:05 45.585058 -122.578010 249 20ft 0kts
04-Sep-17 11:06 45.585058 -122.578010 249 20ft 0kts
04-Sep-17 11:07 45.585882 -122.575932 117 20ft 9kts
04-Sep-17 11:08 45.582768 -122.567998 120 22ft 17kts
04-Sep-17 11:09 45.582767 -122.567290 47 22ft 0kts
04-Sep-17 11:10 45.583598 -122.567074 319 22ft 22kts
04-Sep-17 11:11 45.596093 -122.598656 298 348ft 143kts
04-Sep-17 11:12 45.617780 -122.654035 300 1717ft 170kts
04-Sep-17 11:13 45.645530 -122.708698 310 3282ft 171kts
04-Sep-17 11:14 45.677251 -122.761680 310 4508ft 179kts
04-Sep-17 11:15 45.711328 -122.812835 333 5696ft 177kts
04-Sep-17 11:16 45.759538 -122.822222 351 6898ft 174kts
04-Sep-17 11:17 45.807592 -122.829384 351 7969ft 177kts
04-Sep-17 11:18 45.856800 -122.835959 351 8969ft 178kts
04-Sep-17 11:19 45.905880 -122.843556 348 9965ft 178kts
04-Sep-17 11:20 45.954734 -122.852830 348 10961ft 177kts
04-Sep-17 11:21 46.003670 -122.862111 348 11961ft 177kts
04-Sep-17 11:22 46.053811 -122.871862 349 12540ft 197kts
04-Sep-17 11:23 46.109717 -122.883290 349 12538ft 214kts
04-Sep-17 11:24 46.168570 -122.895676 349 12536ft 217kts
04-Sep-17 11:25 46.228414 -122.908566 349 12536ft 218kts
04-Sep-17 11:26 46.288356 -122.921766 349 12536ft 218kts
04-Sep-17 11:27 46.348781 -122.935368 349 12536ft 218kts
04-Sep-17 11:28 46.408430 -122.949041 349 12538ft 216kts
04-Sep-17 11:29 46.456443 -122.960250 349 12541ft 216kts
04-Sep-17 11:30 46.514839 -122.974142 349 12543ft 216kts
04-Sep-17 11:31 46.573967 -122.988502 349 12545ft 216kts
04-Sep-17 11:32 46.633278 -123.003207 349 12546ft 216kts
04-Sep-17 11:33 46.692428 -123.018170 349 12546ft 216kts
04-Sep-17 11:34 46.752152 -123.032000 351 12495ft 217kts
04-Sep-17 11:35 46.811708 -123.044634 351 12505ft 216kts
04-Sep-17 11:36 46.871088 -123.057448 351 12516ft 216kts
04-Sep-17 11:37 46.930352 -123.070760 351 12513ft 215kts
04-Sep-17 11:38 46.989193 -123.084860 351 12504ft 214kts
04-Sep-17 11:39 47.047491 -123.099348 351 12494ft 212kts
04-Sep-17 11:40 47.105025 -123.113858 351 12491ft 211kts
04-Sep-17 11:41 47.162019 -123.128329 351 12490ft 210kts
04-Sep-17 11:42 47.210312 -123.139360 352 12490ft 210kts
04-Sep-17 11:43 47.268021 -123.152529 352 12490ft 210kts
04-Sep-17 11:44 47.325755 -123.165695 352 12490ft 210kts
04-Sep-17 11:45 47.393234 -123.181072 352 12490ft 210kts
04-Sep-17 11:46 47.450712 -123.196647 345 12491ft 211kts
04-Sep-17 11:47 47.507495 -123.216999 355 12491ft 210kts
04-Sep-17 11:48 47.555869 -123.216722 4 12498ft 209kts
04-Sep-17 11:49 47.613992 -123.212081 4 12513ft 209kts
04-Sep-17 11:50 47.671993 -123.207435 4 12527ft 209kts
04-Sep-17 11:51 47.730907 -123.202633 4 12269ft 218kts
04-Sep-17 11:52 47.792120 -123.197453 4 11879ft 222kts
04-Sep-17 11:53 47.853871 -123.192266 4 11388ft 226kts
04-Sep-17 11:54 47.917147 -123.186865 4 10698ft 230kts
04-Sep-17 11:55 47.979048 -123.165040 16 10001ft 230kts
04-Sep-17 11:56 48.040718 -123.139767 16 9305ft 230kts
04-Sep-17 11:57 48.100711 -123.116509 15 8631ft 230kts
04-Sep-17 11:58 48.161789 -123.092930 15 7942ft 231kts
04-Sep-17 11:59 48.223757 -123.069024 15 7519ft 228kts
04-Sep-17 12:00 48.284673 -123.044491 15 7524ft 227kts
04-Sep-17 12:01 48.344097 -123.020737 15 7527ft 219kts
04-Sep-17 12:02 48.404072 -123.001904 7 7315ft 225kts
04-Sep-17 12:03 48.467677 -123.006381 356 6754ft 233kts
04-Sep-17 12:04 48.520853 -123.052531 299 5844ft 245kts
04-Sep-17 12:05 48.553752 -123.142401 300 4948ft 244kts
04-Sep-17 12:06 48.586182 -123.230530 300 4334ft 237kts
04-Sep-17 12:07 48.614496 -123.307169 300 3470ft 179kts
04-Sep-17 12:08 48.635348 -123.363235 300 2641ft 123kts
04-Sep-17 12:09 48.648818 -123.404443 288 2178ft 119kts
04-Sep-17 12:10 48.657685 -123.453462 256 1491ft 116kts
04-Sep-17 12:11 48.637052 -123.445539 81 601ft 106kts
04-Sep-17 12:12 48.649666 -123.424395 325 22ft 17kts
04-Sep-17 12:13 48.644551 -123.431962 225 22ft 38kts
04-Sep-17 12:14 48.642009 -123.431629 80 22ft 0kts

Navigation Log

Ident Type
Flight plan parsing failed, navigation log unavailable